KEVB/EVB METAR and TAF weather

Enter ICAO airport designator
Station Type Date Time Source
KEVB METAR 2019/12/11 11:47 UTC NOAA

KEVB 111147Z 31003KT 5SM BR SCT037 20/20 A3017 RMK FIRST


Station Type Date Time Source
KEVB Decoded METAR 2019/12/11 11:47 UTC NOAA

New Smyrna Beach, New Smyrna Beach Municipal Airport, FL, United States (KEVB) 29-03-20N 080-56-54W
Dec 11, 2019 - 06:47 AM EST / 2019.12.11 1147 UTC
Wind: from the NW (310 degrees) at 3 MPH (3 KT):0
Visibility: 5 mile(s):0
Sky conditions: partly cloudy
Weather: mist
Temperature: 68 F (20 C)
Dew Point: 68 F (20 C)
Relative Humidity: 100%
Pressure (altimeter): 30.17 in. Hg (1021 hPa)
ob: KEVB 111147Z 31003KT 5SM BR SCT037 20/20 A3017 RMK FIRST
cycle: 12

Station Type Date Time Source
KEVB TAF UTC NOAA

Error!

Example: see airport list